Map

Track Data

SID SEASON NUMBER BASIN SUBBASIN NAME ISO_TIME NATURE LAT LON WMO_WIND WMO_PRES WMO_AGENCY TRACK_TYPE DIST2LAND LANDFALL IFLAG USA_AGENCY USA_ATCF_ID USA_LAT USA_LON USA_RECORD USA_STATUS USA_WIND USA_PRES USA_SSHS USA_R34_NE USA_R34_SE USA_R34_SW USA_R34_NW USA_R50_NE USA_R50_SE USA_R50_SW USA_R50_NW USA_R64_NE USA_R64_SE USA_R64_SW USA_R64_NW USA_POCI USA_ROCI USA_RMW USA_EYE TOKYO_LAT TOKYO_LON TOKYO_GRADE TOKYO_WIND TOKYO_PRES TOKYO_R50_DIR TOKYO_R50_LONG TOKYO_R50_SHORT TOKYO_R30_DIR TOKYO_R30_LONG TOKYO_R30_SHORT TOKYO_LAND CMA_LAT CMA_LON CMA_CAT CMA_WIND CMA_PRES HKO_LAT HKO_LON HKO_CAT HKO_WIND HKO_PRES NEWDELHI_LAT NEWDELHI_LON NEWDELHI_GRADE NEWDELHI_WIND NEWDELHI_PRES NEWDELHI_CI NEWDELHI_DP NEWDELHI_POCI REUNION_LAT REUNION_LON REUNION_TYPE REUNION_WIND REUNION_PRES REUNION_TNUM REUNION_CI REUNION_RMW REUNION_R34_NE REUNION_R34_SE REUNION_R34_SW REUNION_R34_NW REUNION_R50_NE REUNION_R50_SE REUNION_R50_SW REUNION_R50_NW REUNION_R64_NE REUNION_R64_SE REUNION_R64_SW REUNION_R64_NW BOM_LAT BOM_LON BOM_TYPE BOM_WIND BOM_PRES BOM_TNUM BOM_CI BOM_RMW BOM_R34_NE BOM_R34_SE BOM_R34_SW BOM_R34_NW BOM_R50_NE BOM_R50_SE BOM_R50_SW BOM_R50_NW BOM_R64_NE BOM_R64_SE BOM_R64_SW BOM_R64_NW BOM_ROCI BOM_POCI BOM_EYE BOM_POS_METHOD BOM_PRES_METHOD NADI_LAT NADI_LON NADI_CAT NADI_WIND NADI_PRES WELLINGTON_LAT WELLINGTON_LON WELLINGTON_WIND WELLINGTON_PRES DS824_LAT DS824_LON DS824_STAGE DS824_WIND DS824_PRES TD9636_LAT TD9636_LON TD9636_STAGE TD9636_WIND TD9636_PRES TD9635_LAT TD9635_LON TD9635_WIND TD9635_PRES TD9635_ROCI NEUMANN_LAT NEUMANN_LON NEUMANN_CLASS NEUMANN_WIND NEUMANN_PRES MLC_LAT MLC_LON MLC_CLASS MLC_WIND MLC_PRES USA_GUST BOM_GUST BOM_GUST_PER REUNION_GUST REUNION_GUST_PER USA_SEAHGT USA_SEARAD_NE USA_SEARAD_SE USA_SEARAD_SW USA_SEARAD_NW STORM_SPEED STORM_DIR
1890275N21133 1890 32 WP MM NOT_NAMED 1890-10-02 04:00:00 NR 21.2000 132.600 main 1110 1085 __________O___ -1 21.2000 132.600 7 9 321
1890275N21133 1890 32 WP MM NOT_NAMED 1890-10-02 06:00:00 NR 21.4250 132.401 main 1085 1036 __________P___ -1 21.4250 132.401 7 9 321
1890275N21133 1890 32 WP MM NOT_NAMED 1890-10-02 09:00:00 NR 21.7654 132.101 main 1036 1000 __________P___ -1 21.7654 132.101 7 9 321
1890275N21133 1890 32 WP MM NOT_NAMED 1890-10-02 12:00:00 NR 22.1139 131.800 main 1000 952 __________P___ -1 22.1139 131.800 7 9 322
1890275N21133 1890 32 WP MM NOT_NAMED 1890-10-02 15:00:00 NR 22.4756 131.500 main 952 940 __________P___ -1 22.4756 131.500 7 9 323
1890275N21133 1890 32 WP MM NOT_NAMED 1890-10-02 16:00:00 NR 22.6000 131.400 main 940 905 __________O___ -1 22.6000 131.400 7 9 324
1890275N21133 1890 32 WP MM NOT_NAMED 1890-10-02 18:00:00 NR 22.8547 131.200 main 905 871 __________P___ -1 22.8547 131.200 7 9 325
1890275N21133 1890 32 WP MM NOT_NAMED 1890-10-02 21:00:00 NR 23.2435 130.907 main 871 826 __________P___ -1 23.2435 130.907 7 9 326
1890275N21133 1890 32 WP MM NOT_NAMED 1890-10-03 00:00:00 NR 23.6262 130.630 main 826 782 __________P___ -1 23.6262 130.630 7 9 327
1890275N21133 1890 32 WP MM NOT_NAMED 1890-10-03 03:00:00 NR 23.9872 130.377 main 782 771 __________P___ -1 23.9872 130.377 7 8 328
1890275N21133 1890 32 WP MM NOT_NAMED 1890-10-03 04:00:00 NR 24.1000 130.300 main 771 749 __________O___ -1 24.1000 130.300 3 8 326
1890275N21133 1890 32 WP MM NOT_NAMED 1890-10-03 06:00:00 NR 24.3008 130.150 main 750 717 __________P___ -1 24.3008 130.150 3 7 326
1890275N21133 1890 32 WP MM NOT_NAMED 1890-10-03 09:00:00 NR 24.5768 129.949 main 718 697 __________P___ -1 24.5768 129.949 3 6 328
1890275N21133 1890 32 WP MM NOT_NAMED 1890-10-03 12:00:00 NR 24.8391 129.779 main 697 665 __________P___ -1 24.8391 129.779 3 6 332
1890275N21133 1890 32 WP MM NOT_NAMED 1890-10-03 15:00:00 NR 25.1065 129.640 main 667 656 __________P___ -1 25.1065 129.640 3 6 336
1890275N21133 1890 32 WP MM NOT_NAMED 1890-10-03 16:00:00 NR 25.2000 129.600 main 656 636 __________O___ -1 25.2000 129.600 4 6 337
1890275N21133 1890 32 WP MM NOT_NAMED 1890-10-03 18:00:00 NR 25.3947 129.504 main 636 605 __________P___ -1 25.3947 129.504 4 6 339
1890275N21133 1890 32 WP MM NOT_NAMED 1890-10-03 21:00:00 NR 25.6991 129.384 main 605 574 __________P___ -1 25.6991 129.384 4 7 344
1890275N21133 1890 32 WP MM NOT_NAMED 1890-10-04 00:00:00 NR 26.0240 129.308 main 574 531 __________P___ -1 26.0240 129.308 4 7 353
1890275N21133 1890 32 WP MM NOT_NAMED 1890-10-04 03:00:00 NR 26.3757 129.290 main 531 520 __________P___ -1 26.3757 129.290 4 7 357
1890275N21133 1890 32 WP MM NOT_NAMED 1890-10-04 04:00:00 NR 26.5000 129.300 main 520 488 __________O___ -1 26.5000 129.300 4 8 4
1890275N21133 1890 32 WP MM NOT_NAMED 1890-10-04 06:00:00 NR 26.7683 129.333 main 488 442 __________P___ -1 26.7683 129.333 4 9 10
1890275N21133 1890 32 WP MM NOT_NAMED 1890-10-04 09:00:00 NR 27.1961 129.438 main 442 394 __________P___ -1 27.1961 129.438 4 9 16
1890275N21133 1890 32 WP MM NOT_NAMED 1890-10-04 12:00:00 NR 27.6351 129.604 main 394 335 __________P___ -1 27.6351 129.604 4 9 21
1890275N21133 1890 32 WP MM NOT_NAMED 1890-10-04 15:00:00 NR 28.0634 129.819 main 335 321 __________P___ -1 28.0634 129.819 4 9 25
1890275N21133 1890 32 WP MM NOT_NAMED 1890-10-04 16:00:00 NR 28.2000 129.900 main 321 284 __________O___ -1 28.2000 129.900 4 9 29
1890275N21133 1890 32 WP MM NOT_NAMED 1890-10-04 18:00:00 NR 28.4608 130.074 main 284 247 __________P___ -1 28.4608 130.074 4 9 33
1890275N21133 1890 32 WP MM NOT_NAMED 1890-10-04 21:00:00 NR 28.8250 130.360 main 247 200 __________P___ -1 28.8250 130.360 4 9 36
1890275N21133 1890 32 WP MM NOT_NAMED 1890-10-05 00:00:00 NR 29.1657 130.669 main 200 169 __________P___ -1 29.1657 130.669 4 9 40
1890275N21133 1890 32 WP MM NOT_NAMED 1890-10-05 03:00:00 NR 29.4925 130.991 main 169 160 __________P___ -1 29.4925 130.991 4 9 41
1890275N21133 1890 32 WP MM NOT_NAMED 1890-10-05 04:00:00 NR 29.6000 131.100 main 160 __________O___ -1 29.6000 131.100 7 9 41

Digital Typhoon Data and Search

About IBTrACS Database

This database is a web-friendly format of International Best Track Archive for Climate Stewardship (IBTrACS), a global best track data archive curated by NOAA dating back to 1842.

Updated: 2021-10-21